Time;durP1;ratioP1;P1;durP2;ratioP2;P2;SDS_P1;SDS_P2;PMS_P1;PMS_P2;Temp;Humidity;BMP_temperature;BMP_pressure;BME280_temperature;BME280_humidity;BME280_pressure;Samples;Min_cycle;Max_cycle;Signal;HPM_P1;HPM_P2
2021/12/23 00:01:42;;;;;;;26.80;14.98;;;-1.30;99.90;;;;;;5102912;28;20050;-59
2021/12/23 00:04:10;;;;;;;25.70;14.10;;;-1.30;99.90;;;;;;5107308;28;20490;-60
2021/12/23 00:06:36;;;;;;;26.35;14.77;;;-1.20;99.90;;;;;;5084611;28;20051;-60
2021/12/23 00:09:04;;;;;;;26.85;15.15;;;-1.30;99.90;;;;;;5095052;28;20039;-60
2021/12/23 00:11:31;;;;;;;26.80;14.45;;;-1.20;99.90;;;;;;5102648;28;20127;-59
2021/12/23 00:14:05;;;;;;;24.20;14.25;;;-1.20;99.90;;;;;;5099999;28;20039;-59
2021/12/23 00:16:47;;;;;;;22.73;14.23;;;-1.20;99.90;;;;;;5100005;28;20039;-59
2021/12/23 00:19:36;;;;;;;27.58;14.68;;;-1.20;99.90;;;;;;5083239;28;20047;-58
2021/12/23 00:24:47;;;;;;;27.83;14.45;;;-1.20;99.90;;;;;;5107596;28;20051;-59
2021/12/23 00:27:14;;;;;;;23.92;13.68;;;-1.20;99.90;;;;;;5092959;28;20028;-60
2021/12/23 00:29:40;;;;;;;28.95;14.73;;;-1.20;99.90;;;;;;5092657;28;20487;-60
2021/12/23 00:32:08;;;;;;;27.10;15.20;;;-1.10;99.90;;;;;;5109979;28;20529;-60
2021/12/23 00:34:38;;;;;;;27.27;14.55;;;-1.20;99.90;;;;;;5099064;28;20036;-59
2021/12/23 00:37:06;;;;;;;26.98;15.23;;;-1.20;99.90;;;;;;5098843;28;20084;-59
2021/12/23 00:39:32;;;;;;;25.75;14.95;;;-1.20;99.90;;;;;;5101882;28;20063;-59
2021/12/23 00:42:06;;;;;;;25.13;14.52;;;-1.20;99.90;;;;;;5109111;28;20406;-59
2021/12/23 00:44:33;;;;;;;26.40;14.65;;;-1.20;99.90;;;;;;5103416;28;20035;-59
2021/12/23 00:46:58;;;;;;;28.73;14.85;;;-1.20;99.90;;;;;;5105150;28;20157;-59
2021/12/23 00:49:24;;;;;;;29.48;15.25;;;-1.10;99.90;;;;;;5102916;28;20534;-60
2021/12/23 00:51:50;;;;;;;26.30;15.40;;;-1.10;99.90;;;;;;5103710;28;21044;-58
2021/12/23 00:54:15;;;;;;;24.13;14.05;;;-1.10;99.90;;;;;;5081852;28;20368;-59
2021/12/23 00:56:47;;;;;;;27.40;14.90;;;-1.10;99.90;;;;;;5093696;28;20036;-59
2021/12/23 00:59:13;;;;;;;28.17;14.82;;;-1.10;99.90;;;;;;5080344;28;20054;-59
2021/12/23 01:01:39;;;;;;;25.48;14.77;;;-1.10;99.90;;;;;;5108280;28;20389;-59
2021/12/23 01:04:05;;;;;;;25.65;15.07;;;-1.10;99.90;;;;;;5098197;28;20364;-58
2021/12/23 01:06:30;;;;;;;30.15;15.82;;;-1.10;99.90;;;;;;5106878;28;20114;-59
2021/12/23 01:08:56;;;;;;;28.88;15.20;;;-1.10;99.90;;;;;;5100236;28;20031;-59
2021/12/23 01:11:22;;;;;;;26.50;15.05;;;-1.10;99.90;;;;;;5105626;28;20043;-58
2021/12/23 01:14:00;;;;;;;25.85;15.05;;;-1.10;99.90;;;;;;5094536;28;20043;-59
2021/12/23 01:16:48;;;;;;;25.08;15.07;;;-1.10;99.90;;;;;;5103542;28;20436;-58
2021/12/23 01:19:13;;;;;;;28.40;15.65;;;-1.10;99.90;;;;;;5101558;28;20052;-60
2021/12/23 01:21:39;;;;;;;26.30;14.85;;;-1.10;99.90;;;;;;5091901;28;20024;-58
2021/12/23 01:24:05;;;;;;;27.13;15.20;;;-1.10;99.90;;;;;;5092593;28;20047;-58
2021/12/23 01:26:30;;;;;;;26.10;14.77;;;-1.10;99.90;;;;;;5110484;28;20039;-58
2021/12/23 01:28:58;;;;;;;29.00;15.88;;;-1.00;99.90;;;;;;5112027;28;20039;-59
2021/12/23 01:31:26;;;;;;;26.70;15.70;;;-1.10;99.90;;;;;;5094928;28;20453;-59
2021/12/23 01:33:52;;;;;;;26.00;14.80;;;-1.10;99.90;;;;;;5090766;28;20040;-59
2021/12/23 01:36:18;;;;;;;30.80;15.35;;;-1.10;99.90;;;;;;5092481;28;20050;-58
2021/12/23 01:38:44;;;;;;;29.05;15.00;;;-1.10;99.90;;;;;;5094842;28;20035;-58
2021/12/23 01:41:10;;;;;;;28.17;15.13;;;-1.10;99.90;;;;;;5093851;28;20051;-59
2021/12/23 01:43:36;;;;;;;27.13;15.45;;;-1.10;99.90;;;;;;5101460;28;20101;-60
2021/12/23 01:46:02;;;;;;;29.38;16.42;;;-1.10;99.90;;;;;;5099157;28;20020;-59
2021/12/23 01:48:28;;;;;;;32.65;16.75;;;-1.10;99.90;;;;;;5103023;28;20043;-59
2021/12/23 01:50:54;;;;;;;31.35;16.48;;;-1.10;99.90;;;;;;5094872;28;20159;-58
2021/12/23 01:53:20;;;;;;;28.38;15.80;;;-1.10;99.90;;;;;;5105577;28;20118;-59
2021/12/23 01:55:46;;;;;;;30.75;16.02;;;-1.10;99.90;;;;;;5099027;28;20097;-59
2021/12/23 01:58:13;;;;;;;28.20;16.35;;;-1.00;99.90;;;;;;5109678;28;20042;-59
2021/12/23 02:00:43;;;;;;;33.17;17.17;;;-1.00;99.90;;;;;;5102859;28;20036;-59
2021/12/23 02:03:10;;;;;;;28.70;16.02;;;-1.00;99.90;;;;;;5105343;28;20036;-59
2021/12/23 02:05:36;;;;;;;28.08;15.77;;;-1.00;99.90;;;;;;5093566;28;20036;-59
2021/12/23 02:08:02;;;;;;;28.38;15.75;;;-1.00;99.90;;;;;;5092697;28;20912;-59
2021/12/23 02:10:28;;;;;;;32.53;17.05;;;-1.00;99.90;;;;;;5098325;28;20501;-58
2021/12/23 02:12:54;;;;;;;30.10;16.10;;;-1.00;99.90;;;;;;5102167;28;20050;-60
2021/12/23 02:15:20;;;;;;;30.45;16.90;;;-1.00;99.90;;;;;;5084621;28;20047;-60
2021/12/23 02:17:47;;;;;;;29.85;17.17;;;-0.90;99.90;;;;;;5107488;28;20374;-59
2021/12/23 02:20:34;;;;;;;33.20;16.13;;;-0.90;99.90;;;;;;5095705;28;20056;-60
2021/12/23 02:23:00;;;;;;;29.23;15.85;;;-0.90;99.90;;;;;;5095347;28;20463;-59
2021/12/23 02:25:26;;;;;;;29.00;16.98;;;-0.90;99.90;;;;;;5086720;28;20119;-59
2021/12/23 02:27:53;;;;;;;32.35;17.42;;;-0.90;99.90;;;;;;5093733;28;20043;-59
2021/12/23 02:30:28;;;;;;;27.02;16.15;;;-0.90;99.90;;;;;;5096379;28;20114;-60
2021/12/23 02:32:55;;;;;;;30.08;16.10;;;-0.90;99.90;;;;;;5093669;28;20328;-60
2021/12/23 02:35:22;;;;;;;29.05;16.83;;;-0.90;99.90;;;;;;5075618;28;20098;-59
2021/12/23 02:37:49;;;;;;;29.42;16.75;;;-0.90;99.90;;;;;;5095301;28;20036;-59
2021/12/23 02:40:46;;;;;;;27.08;15.43;;;-0.90;99.90;;;;;;5094645;28;20059;-59
2021/12/23 02:43:13;;;;;;;29.38;16.65;;;-0.90;99.90;;;;;;5075217;28;20065;-59
2021/12/23 02:45:41;;;;;;;30.02;17.02;;;-0.90;99.90;;;;;;5083986;28;20028;-59
2021/12/23 02:48:13;;;;;;;29.30;16.73;;;-0.90;99.90;;;;;;5074433;28;20704;-60
2021/12/23 02:50:40;;;;;;;32.60;17.38;;;-0.90;99.90;;;;;;5086594;28;20044;-60
2021/12/23 02:53:06;;;;;;;27.48;16.33;;;-0.90;99.90;;;;;;5076566;28;20040;-60
2021/12/23 02:55:31;;;;;;;31.15;17.10;;;-0.90;99.90;;;;;;5081834;28;20036;-61
2021/12/23 02:57:57;;;;;;;32.92;16.55;;;-0.90;99.90;;;;;;5088552;28;20036;-59
2021/12/23 03:00:23;;;;;;;28.45;15.43;;;-0.90;99.90;;;;;;5091377;28;20047;-60
2021/12/23 03:02:49;;;;;;;31.23;16.67;;;-0.90;99.90;;;;;;5081259;28;20064;-59
2021/12/23 03:05:15;;;;;;;31.45;16.70;;;-0.80;99.90;;;;;;5087883;28;20040;-58
2021/12/23 03:07:41;;;;;;;31.42;17.35;;;-0.80;99.90;;;;;;5080878;28;20435;-59
2021/12/23 03:10:08;;;;;;;32.20;17.15;;;-0.80;99.90;;;;;;5086547;28;20049;-59
2021/12/23 03:12:34;;;;;;;28.10;16.83;;;-0.80;99.90;;;;;;5067539;28;20549;-59
2021/12/23 03:15:01;;;;;;;29.23;17.13;;;-0.80;99.90;;;;;;5082904;28;20121;-59
2021/12/23 03:17:26;;;;;;;34.90;17.95;;;-0.80;99.90;;;;;;5079407;28;20199;-59
2021/12/23 03:19:52;;;;;;;29.27;16.70;;;-0.80;99.90;;;;;;5075514;28;20482;-59
2021/12/23 03:22:18;;;;;;;29.35;16.70;;;-0.80;99.90;;;;;;5075172;28;20032;-60
2021/12/23 03:24:44;;;;;;;33.88;17.77;;;-0.80;99.90;;;;;;5073690;28;20041;-59
2021/12/23 03:27:10;;;;;;;33.15;17.45;;;-0.80;99.90;;;;;;5079179;28;20047;-59
2021/12/23 03:29:36;;;;;;;31.90;17.55;;;-0.80;99.90;;;;;;5060957;28;20032;-60
2021/12/23 03:32:01;;;;;;;32.65;17.67;;;-0.80;99.90;;;;;;5088314;28;20534;-60
2021/12/23 03:34:27;;;;;;;34.20;17.70;;;-0.80;99.90;;;;;;5087294;28;20024;-60
2021/12/23 03:36:53;;;;;;;33.75;17.83;;;-0.80;99.90;;;;;;5074129;28;20044;-59
2021/12/23 03:39:19;;;;;;;32.60;17.98;;;-0.80;99.90;;;;;;5073322;28;20052;-59
2021/12/23 03:41:46;;;;;;;32.25;18.52;;;-0.80;99.90;;;;;;5091543;28;20079;-59
2021/12/23 03:44:12;;;;;;;33.17;17.88;;;-0.80;99.90;;;;;;5074859;28;20035;-59
2021/12/23 03:46:38;;;;;;;37.80;18.83;;;-0.80;99.90;;;;;;5074506;28;20036;-59
2021/12/23 03:49:08;;;;;;;34.05;18.42;;;-0.70;99.90;;;;;;5077798;28;20045;-60
2021/12/23 03:51:34;;;;;;;32.42;17.98;;;-0.70;99.90;;;;;;5080371;28;20040;-59
2021/12/23 03:54:00;;;;;;;28.27;17.63;;;-0.70;99.90;;;;;;5075865;28;20124;-58
2021/12/23 03:56:26;;;;;;;31.65;19.20;;;-0.70;99.90;;;;;;5065841;28;20059;-59
2021/12/23 03:58:54;;;;;;;30.45;17.77;;;-0.70;99.90;;;;;;5085511;28;20039;-59
2021/12/23 04:01:22;;;;;;;31.13;17.30;;;-0.60;99.90;;;;;;5086274;28;20044;-59
2021/12/23 04:03:52;;;;;;;30.98;18.20;;;-0.60;99.90;;;;;;5084183;28;20574;-59
2021/12/23 04:06:19;;;;;;;29.60;16.77;;;-0.60;99.90;;;;;;5086377;28;20041;-60
2021/12/23 04:08:45;;;;;;;30.73;17.17;;;-0.60;99.90;;;;;;5074397;28;20086;-59
2021/12/23 04:11:11;;;;;;;29.55;17.52;;;-0.60;99.90;;;;;;5091435;28;20040;-58
2021/12/23 04:13:37;;;;;;;29.70;17.10;;;-0.60;99.90;;;;;;5088278;28;20040;-59
2021/12/23 04:16:03;;;;;;;28.50;17.13;;;-0.60;99.90;;;;;;5087336;28;20040;-58
2021/12/23 04:18:29;;;;;;;31.42;18.00;;;-0.60;99.90;;;;;;5082725;28;20536;-59
2021/12/23 04:20:55;;;;;;;29.45;17.23;;;-0.60;99.90;;;;;;5085112;28;20032;-59
2021/12/23 04:23:26;;;;;;;32.67;18.27;;;-0.60;99.90;;;;;;5075644;28;20033;-58
2021/12/23 04:25:53;;;;;;;27.77;17.10;;;-0.60;99.90;;;;;;5071942;28;20035;-60
2021/12/23 04:28:20;;;;;;;31.35;17.52;;;-0.50;99.90;;;;;;5062939;28;20394;-59
2021/12/23 04:30:46;;;;;;;35.20;18.60;;;-0.50;99.90;;;;;;5075268;28;20040;-59
2021/12/23 04:33:13;;;;;;;35.17;18.15;;;-0.50;99.90;;;;;;5077399;28;20043;-59
2021/12/23 04:35:39;;;;;;;32.42;17.90;;;-0.50;99.90;;;;;;5074857;28;20037;-59
2021/12/23 04:38:05;;;;;;;32.13;18.27;;;-0.50;99.90;;;;;;5081758;28;20040;-58
2021/12/23 04:40:34;;;;;;;33.58;18.92;;;-0.50;99.90;;;;;;5078457;28;20048;-60
2021/12/23 04:43:00;;;;;;;35.35;18.13;;;-0.50;99.90;;;;;;5079652;28;20090;-58
2021/12/23 04:45:26;;;;;;;33.28;17.98;;;-0.50;99.90;;;;;;5074401;28;20040;-59
2021/12/23 04:47:51;;;;;;;32.25;17.90;;;-0.50;99.90;;;;;;5084676;28;20115;-59
2021/12/23 04:50:18;;;;;;;28.88;17.30;;;-0.50;99.90;;;;;;5081415;28;20036;-59
2021/12/23 04:52:45;;;;;;;31.67;18.20;;;-0.50;99.90;;;;;;5078494;28;20028;-60
2021/12/23 04:55:12;;;;;;;34.38;18.73;;;-0.40;99.90;;;;;;5077971;28;20055;-59
2021/12/23 04:57:38;;;;;;;31.52;18.27;;;-0.40;99.90;;;;;;5083393;28;20387;-59
2021/12/23 05:00:13;;;;;;;31.15;18.20;;;-0.40;99.90;;;;;;5082042;28;20046;-60
2021/12/23 05:02:39;;;;;;;32.15;18.75;;;-0.40;99.90;;;;;;5071467;28;20480;-59
2021/12/23 05:05:06;;;;;;;31.10;18.15;;;-0.50;99.90;;;;;;5062573;28;20043;-59
2021/12/23 05:07:32;;;;;;;34.00;18.30;;;-0.40;99.90;;;;;;5078166;28;20040;-60
2021/12/23 05:09:58;;;;;;;34.90;18.33;;;-0.50;99.90;;;;;;5067265;28;20044;-60
2021/12/23 05:12:23;;;;;;;31.45;18.10;;;-0.40;99.90;;;;;;5059917;28;20164;-59
2021/12/23 05:14:49;;;;;;;32.38;18.02;;;-0.40;99.90;;;;;;5086273;28;20546;-59
2021/12/23 05:17:15;;;;;;;35.05;18.70;;;-0.40;99.90;;;;;;5073851;28;20040;-59
2021/12/23 05:19:41;;;;;;;32.75;17.95;;;-0.50;99.90;;;;;;5071756;28;20067;-59
2021/12/23 05:22:07;;;;;;;34.53;19.40;;;-0.40;99.90;;;;;;5075037;28;20051;-60
2021/12/23 05:24:32;;;;;;;36.47;18.90;;;-0.50;99.90;;;;;;5079299;28;20032;-59
2021/12/23 05:26:59;;;;;;;33.13;19.25;;;-0.40;99.90;;;;;;5073970;28;20032;-59
2021/12/23 05:29:24;;;;;;;35.22;19.02;;;-0.40;99.90;;;;;;5084191;28;20089;-59
2021/12/23 05:31:50;;;;;;;35.00;19.20;;;-0.40;99.90;;;;;;5080411;28;20421;-58
2021/12/23 05:34:16;;;;;;;32.63;19.15;;;-0.50;99.90;;;;;;5081541;28;20036;-59
2021/12/23 05:36:42;;;;;;;33.50;18.83;;;-0.40;99.90;;;;;;5074100;28;20040;-59
2021/12/23 05:39:08;;;;;;;36.03;19.13;;;-0.40;99.90;;;;;;5083018;28;20127;-59
2021/12/23 05:41:34;;;;;;;34.13;19.13;;;-0.40;99.90;;;;;;5098073;28;20471;-59
2021/12/23 05:44:00;;;;;;;33.15;18.25;;;-0.40;99.90;;;;;;5086719;28;20095;-59
2021/12/23 05:46:26;;;;;;;36.70;18.70;;;-0.40;99.90;;;;;;5095750;28;20031;-59
2021/12/23 05:48:52;;;;;;;33.25;18.88;;;-0.40;99.90;;;;;;5109232;28;20036;-59
2021/12/23 05:51:17;;;;;;;35.50;19.25;;;-0.40;99.90;;;;;;5107514;28;20474;-59
2021/12/23 05:53:43;;;;;;;33.25;18.77;;;-0.40;99.90;;;;;;5111658;28;20035;-59
2021/12/23 05:56:09;;;;;;;37.17;19.83;;;-0.40;99.90;;;;;;5111469;28;20035;-59
2021/12/23 05:58:35;;;;;;;31.23;18.35;;;-0.40;99.90;;;;;;5099478;28;20065;-59
2021/12/23 06:01:00;;;;;;;33.85;18.10;;;-0.40;99.90;;;;;;5100623;28;20040;-59
2021/12/23 06:03:26;;;;;;;32.47;19.52;;;-0.40;99.90;;;;;;5107545;28;20072;-59
2021/12/23 06:05:52;;;;;;;34.03;18.27;;;-0.40;99.90;;;;;;5097631;28;20028;-58
2021/12/23 06:08:18;;;;;;;34.72;18.88;;;-0.40;99.90;;;;;;5106589;28;20542;-60
2021/12/23 06:10:44;;;;;;;35.60;18.75;;;-0.40;99.90;;;;;;5106678;28;20126;-59
2021/12/23 06:13:10;;;;;;;35.38;19.23;;;-0.40;99.90;;;;;;5111673;28;20035;-58
2021/12/23 06:15:36;;;;;;;33.58;19.67;;;-0.30;99.90;;;;;;5106373;28;20556;-59
2021/12/23 06:18:02;;;;;;;33.15;19.30;;;-0.30;99.90;;;;;;5108469;28;20532;-59
2021/12/23 06:20:28;;;;;;;36.15;19.38;;;-0.30;99.90;;;;;;5102298;28;20124;-60
2021/12/23 06:22:54;;;;;;;34.50;19.05;;;-0.30;99.90;;;;;;5102037;28;20085;-59
2021/12/23 06:25:20;;;;;;;37.88;19.85;;;-0.30;99.90;;;;;;5097185;28;20218;-59
2021/12/23 06:27:46;;;;;;;32.03;18.88;;;-0.30;99.90;;;;;;5103618;28;20170;-59
2021/12/23 06:30:18;;;;;;;32.83;18.08;;;-0.30;99.90;;;;;;5109708;28;20176;-59
2021/12/23 06:32:51;;;;;;;37.25;19.13;;;-0.30;99.90;;;;;;5115285;28;20487;-59
2021/12/23 06:35:19;;;;;;;35.45;19.42;;;-0.30;99.90;;;;;;5097608;28;20039;-60
2021/12/23 06:37:45;;;;;;;35.92;19.80;;;-0.30;99.90;;;;;;5104905;28;20047;-59
2021/12/23 06:40:11;;;;;;;32.63;19.05;;;-0.30;99.90;;;;;;5101291;28;20047;-60
2021/12/23 06:42:37;;;;;;;32.38;18.88;;;-0.30;99.90;;;;;;5099838;28;20044;-59
2021/12/23 06:45:04;;;;;;;33.45;19.30;;;-0.30;99.90;;;;;;5101946;28;20491;-59
2021/12/23 06:47:30;;;;;;;36.45;19.35;;;-0.30;99.90;;;;;;5109586;28;20040;-58
2021/12/23 06:49:56;;;;;;;36.55;19.15;;;-0.30;99.90;;;;;;5097779;28;20047;-60
2021/12/23 06:52:21;;;;;;;33.72;18.85;;;-0.30;99.90;;;;;;5084247;28;20543;-60
2021/12/23 06:54:52;;;;;;;34.65;19.70;;;-0.30;99.90;;;;;;5108485;28;20533;-59
2021/12/23 06:57:18;;;;;;;35.80;19.02;;;-0.30;99.90;;;;;;5096774;28;20435;-60
2021/12/23 06:59:44;;;;;;;36.05;19.98;;;-0.30;99.90;;;;;;5099135;28;20147;-59
2021/12/23 07:02:09;;;;;;;37.15;19.27;;;-0.30;99.90;;;;;;5095975;28;20039;-60
2021/12/23 07:04:36;;;;;;;35.15;19.08;;;-0.30;99.90;;;;;;5101624;28;20490;-59
2021/12/23 07:07:24;;;;;;;37.33;21.15;;;-0.30;99.90;;;;;;5096007;28;20031;-59
2021/12/23 07:09:49;;;;;;;34.78;19.60;;;-0.30;99.90;;;;;;5099000;28;20035;-59
2021/12/23 07:12:15;;;;;;;34.47;20.08;;;-0.30;99.90;;;;;;5114005;28;20046;-60
2021/12/23 07:14:41;;;;;;;36.75;19.75;;;-0.30;99.90;;;;;;5094361;28;21911;-59
2021/12/23 07:17:07;;;;;;;36.83;19.88;;;-0.30;99.90;;;;;;5095080;28;20064;-60
2021/12/23 07:19:34;;;;;;;37.95;19.80;;;-0.30;99.90;;;;;;5103743;28;20044;-60
2021/12/23 07:22:00;;;;;;;36.63;20.02;;;-0.30;99.90;;;;;;5097232;28;20071;-60
2021/12/23 07:24:26;;;;;;;36.22;20.02;;;-0.30;99.90;;;;;;5093680;28;20071;-59
2021/12/23 07:26:52;;;;;;;35.15;19.85;;;-0.30;99.90;;;;;;5097594;28;20480;-59
2021/12/23 07:29:17;;;;;;;38.92;20.83;;;-0.30;99.90;;;;;;5097972;28;20036;-59
2021/12/23 07:31:43;;;;;;;40.70;21.38;;;-0.30;99.90;;;;;;5093865;28;20111;-59
2021/12/23 07:34:09;;;;;;;38.90;21.73;;;-0.30;99.90;;;;;;5097090;28;20059;-60
2021/12/23 07:36:35;;;;;;;42.13;22.63;;;-0.40;99.90;;;;;;5092872;28;20071;-59
2021/12/23 07:39:01;;;;;;;39.83;22.15;;;-0.40;99.90;;;;;;5092912;28;20036;-60
2021/12/23 07:41:27;;;;;;;41.47;22.63;;;-0.40;99.90;;;;;;5087780;28;20595;-59
2021/12/23 07:43:58;;;;;;;43.60;23.70;;;-0.40;99.90;;;;;;5085624;28;20104;-60
2021/12/23 07:46:29;;;;;;;45.80;24.90;;;-0.40;99.90;;;;;;5086250;28;20075;-60
2021/12/23 07:48:56;;;;;;;51.53;26.70;;;-0.40;99.90;;;;;;5086638;28;20858;-59
2021/12/23 07:51:23;;;;;;;49.47;25.75;;;-0.40;99.90;;;;;;5084594;28;20604;-59
2021/12/23 07:53:49;;;;;;;45.22;25.42;;;-0.30;99.90;;;;;;5083898;28;20058;-59
2021/12/23 07:56:14;;;;;;;55.03;26.65;;;-0.30;99.90;;;;;;5084045;28;20423;-59
2021/12/23 07:58:40;;;;;;;55.17;27.73;;;-0.30;99.90;;;;;;5083854;28;22138;-60
2021/12/23 08:01:06;;;;;;;62.63;27.98;;;-0.40;99.90;;;;;;5082798;28;20043;-59
2021/12/23 08:03:32;;;;;;;51.00;26.48;;;-0.30;99.90;;;;;;5083148;28;20039;-58
2021/12/23 08:05:57;;;;;;;54.28;29.05;;;-0.40;99.90;;;;;;5083383;28;20427;-58
2021/12/23 08:08:23;;;;;;;58.97;29.30;;;-0.30;99.90;;;;;;5082348;28;20055;-59
2021/12/23 08:10:50;;;;;;;63.92;29.60;;;-0.30;99.90;;;;;;5081570;28;20494;-59
2021/12/23 08:13:16;;;;;;;58.65;30.02;;;-0.30;99.90;;;;;;5080091;28;20134;-60
2021/12/23 08:15:43;;;;;;;60.20;28.83;;;-0.30;99.90;;;;;;5082267;28;20495;-60
2021/12/23 08:18:09;;;;;;;55.38;28.80;;;-0.40;99.90;;;;;;5082778;28;20400;-59
2021/12/23 08:20:35;;;;;;;60.38;31.27;;;-0.30;99.90;;;;;;5079117;28;20071;-59
2021/12/23 08:23:00;;;;;;;68.82;31.20;;;0.70;99.90;;;;;;5064585;28;20737;-60
2021/12/23 08:25:27;;;;;;;64.43;31.08;;;-0.30;99.90;;;;;;5081029;28;20044;-60
2021/12/23 08:27:53;;;;;;;61.88;30.95;;;-1.50;99.90;;;;;;5082283;28;20118;-59
2021/12/23 08:30:20;;;;;;;67.65;31.67;;;0.60;99.90;;;;;;5080787;28;22414;-59
2021/12/23 08:32:48;;;;;;;60.70;27.88;;;-0.40;99.90;;;;;;5084082;28;20043;-59
2021/12/23 08:35:14;;;;;;;68.00;33.00;;;-0.30;99.90;;;;;;5081654;28;20438;-60
2021/12/23 08:37:45;;;;;;;68.32;30.67;;;-0.40;99.90;;;;;;5084691;28;20072;-59
2021/12/23 08:40:12;;;;;;;62.10;31.08;;;-0.40;99.90;;;;;;5083515;28;20085;-61
2021/12/23 08:42:38;;;;;;;64.78;29.98;;;-0.40;99.90;;;;;;5082160;28;20031;-58
2021/12/23 08:45:05;;;;;;;68.65;32.08;;;-0.30;99.90;;;;;;5083358;28;20035;-59
2021/12/23 08:47:32;;;;;;;70.20;32.90;;;-0.30;99.90;;;;;;5083213;28;20384;-60
2021/12/23 08:49:57;;;;;;;71.97;32.10;;;-0.30;99.90;;;;;;5081266;28;22086;-60
2021/12/23 08:52:23;;;;;;;64.75;31.58;;;-0.30;99.90;;;;;;5083308;28;20380;-59
2021/12/23 08:54:49;;;;;;;70.63;32.13;;;-0.30;99.90;;;;;;5082093;28;20126;-60
2021/12/23 08:57:15;;;;;;;69.05;31.63;;;-0.30;99.90;;;;;;5081916;28;20043;-60
2021/12/23 08:59:41;;;;;;;70.97;31.77;;;-0.30;99.90;;;;;;5083137;28;20093;-60
2021/12/23 09:02:07;;;;;;;70.03;33.40;;;-0.30;99.90;;;;;;5082221;28;20632;-58
2021/12/23 09:04:34;;;;;;;67.07;32.85;;;-0.30;99.90;;;;;;5080814;28;20043;-60
2021/12/23 09:07:00;;;;;;;73.10;33.08;;;-0.30;99.90;;;;;;5085102;28;20047;-59
2021/12/23 09:09:30;;;;;;;76.80;33.50;;;-0.30;99.90;;;;;;5091969;28;20028;-60
2021/12/23 09:11:56;;;;;;;72.45;32.63;;;-0.30;99.90;;;;;;5095998;28;20047;-59
2021/12/23 09:14:21;;;;;;;72.18;32.45;;;-0.30;99.90;;;;;;5097009;28;20402;-59
2021/12/23 09:16:47;;;;;;;74.38;32.88;;;-0.30;99.90;;;;;;5101488;28;20433;-59
2021/12/23 09:19:14;;;;;;;75.75;32.20;;;-0.30;99.90;;;;;;5091730;28;20039;-59
2021/12/23 09:21:40;;;;;;;75.70;33.85;;;-0.30;99.90;;;;;;5095042;28;20066;-59
2021/12/23 09:24:06;;;;;;;77.90;34.13;;;-0.30;99.90;;;;;;5094154;28;20032;-59
2021/12/23 09:26:40;;;;;;;80.18;35.47;;;-0.20;99.90;;;;;;5093994;28;20478;-60
2021/12/23 09:29:16;;;;;;;81.55;34.70;;;-0.20;99.90;;;;;;5097415;28;20036;-59
2021/12/23 09:34:27;;;;;;;83.63;34.65;;;-0.20;99.90;;;;;;5095306;28;20130;-61
2021/12/23 09:36:53;;;;;;;88.05;35.35;;;-0.20;99.90;;;;;;5092515;28;20055;-58
2021/12/23 09:39:19;;;;;;;83.30;36.50;;;-0.20;99.90;;;;;;5103714;28;20112;-59
2021/12/23 09:41:46;;;;;;;80.72;34.83;;;-0.20;99.90;;;;;;5103743;28;20097;-60
2021/12/23 09:44:14;;;;;;;86.50;36.30;;;-0.20;99.90;;;;;;5092175;28;20032;-59
2021/12/23 09:46:40;;;;;;;83.53;35.95;;;-0.10;99.90;;;;;;5092436;28;20104;-59
2021/12/23 09:49:07;;;;;;;82.57;35.60;;;-0.20;99.90;;;;;;5086140;28;20461;-60
2021/12/23 09:51:35;;;;;;;84.07;36.08;;;-0.20;99.90;;;;;;5066786;28;20043;-60
2021/12/23 09:54:04;;;;;;;85.10;35.80;;;-0.20;99.90;;;;;;5097042;28;20048;-61
2021/12/23 09:56:31;;;;;;;79.32;35.20;;;-0.20;99.90;;;;;;5091544;28;20040;-58
2021/12/23 09:58:58;;;;;;;84.25;34.60;;;-0.10;99.90;;;;;;5096698;28;20102;-61
2021/12/23 10:01:26;;;;;;;84.85;35.45;;;-0.10;99.90;;;;;;5094410;28;20047;-59
2021/12/23 10:03:52;;;;;;;84.35;34.10;;;-0.10;99.90;;;;;;5102287;28;20039;-59
2021/12/23 10:06:18;;;;;;;88.20;37.03;;;-0.10;99.90;;;;;;5096246;28;20390;-59
2021/12/23 10:08:44;;;;;;;80.90;34.47;;;-0.10;99.90;;;;;;5092328;28;20086;-60
2021/12/23 10:30:33;;;;;;;87.93;37.17;;;-1.20;99.90;;;;;;5104824;28;20054;-55
2021/12/23 10:38:42;;;;;;;93.30;38.20;;;0.00;99.90;;;;;;5095395;28;20036;-59
2021/12/23 10:41:24;;;;;;;90.65;37.20;;;0.00;99.90;;;;;;5077336;28;20052;-59
2021/12/23 10:44:05;;;;;;;88.43;38.28;;;0.00;99.90;;;;;;5077277;28;20040;-60
2021/12/23 10:46:37;;;;;;;101.35;38.33;;;0.00;99.90;;;;;;5100303;28;20045;-60
2021/12/23 10:49:29;;;;;;;88.93;37.25;;;0.00;99.90;;;;;;5097034;28;20447;-59
2021/12/23 10:52:03;;;;;;;89.47;35.83;;;0.10;99.90;;;;;;5090636;28;20044;-59
2021/12/23 11:00:15;;;;;;;90.80;38.40;;;0.10;99.90;;;;;;5067254;28;20059;-57
2021/12/23 11:03:22;;;;;;;89.72;38.17;;;0.10;99.90;;;;;;5087215;28;20050;-58
2021/12/23 11:06:10;;;;;;;96.75;37.25;;;0.10;99.90;;;;;;5087011;28;20040;-58
2021/12/23 11:39:25;;;;;;;109.43;40.85;;;0.30;99.90;;;;;;5083469;28;20146;-59
2021/12/23 11:42:03;;;;;;;106.93;40.03;;;0.20;99.90;;;;;;5084198;28;20083;-60
2021/12/23 11:44:31;;;;;;;107.32;40.35;;;0.20;99.90;;;;;;5082983;28;20070;-59
2021/12/23 11:47:01;;;;;;;109.28;41.80;;;0.20;99.90;;;;;;5083857;28;20130;-59
2021/12/23 11:49:26;;;;;;;108.82;40.28;;;0.20;99.90;;;;;;5084711;28;20047;-58
2021/12/23 11:51:55;;;;;;;108.25;40.42;;;0.20;99.90;;;;;;5082976;28;20085;-58
2021/12/23 11:54:31;;;;;;;107.60;39.85;;;0.20;99.90;;;;;;5084071;28;20129;-59
2021/12/23 11:57:05;;;;;;;98.45;39.15;;;0.20;99.90;;;;;;5063699;28;22071;-59
2021/12/23 11:59:32;;;;;;;99.05;38.05;;;0.20;99.90;;;;;;5080720;28;20459;-59
2021/12/23 12:01:58;;;;;;;94.00;37.03;;;0.30;99.90;;;;;;5081453;28;20036;-60
2021/12/23 12:04:35;;;;;;;113.15;40.75;;;0.30;99.90;;;;;;5046817;28;20086;-58
2021/12/23 12:07:10;;;;;;;96.45;37.78;;;0.30;99.90;;;;;;5076206;28;20466;-59
2021/12/23 12:09:38;;;;;;;88.55;35.05;;;0.30;99.90;;;;;;5084719;28;20217;-60
2021/12/23 12:12:11;;;;;;;96.20;38.80;;;0.30;99.90;;;;;;5081180;28;20048;-59
2021/12/23 12:14:40;;;;;;;102.97;38.58;;;0.30;99.90;;;;;;5080653;28;20062;-58
2021/12/23 12:17:26;;;;;;;100.55;39.10;;;0.30;99.90;;;;;;5081663;28;20048;-58
2021/12/23 12:19:52;;;;;;;89.40;37.53;;;0.30;99.90;;;;;;5084509;28;20043;-58
2021/12/23 12:22:47;;;;;;;107.32;40.97;;;0.30;99.90;;;;;;5079040;28;20044;-59
2021/12/23 12:25:32;;;;;;;;;;;0.30;99.90;;;;;;5062156;28;20049;-59
2021/12/23 12:28:00;;;;;;;95.43;36.47;;;0.30;99.90;;;;;;5081651;28;19931;-58
2021/12/23 12:30:53;;;;;;;86.30;37.47;;;0.30;99.90;;;;;;5079045;28;20425;-59
2021/12/23 12:33:19;;;;;;;89.93;37.15;;;0.40;99.90;;;;;;5083072;28;20051;-59
2021/12/23 12:35:57;;;;;;;93.40;37.50;;;0.30;99.90;;;;;;5080689;28;20680;-58
2021/12/23 12:38:26;;;;;;;86.25;36.08;;;0.30;99.90;;;;;;5083021;28;20028;-60
2021/12/23 12:41:03;;;;;;;95.93;36.78;;;0.40;99.90;;;;;;5081007;28;20043;-60
2021/12/23 12:43:49;;;;;;;92.30;38.05;;;0.40;99.90;;;;;;5081652;28;20082;-58
2021/12/23 12:46:44;;;;;;;90.45;35.30;;;0.40;99.90;;;;;;5078881;28;20761;-58
2021/12/23 12:49:23;;;;;;;90.32;37.30;;;0.40;99.90;;;;;;5071681;28;20062;-58
2021/12/23 12:51:50;;;;;;;91.43;38.03;;;0.40;99.90;;;;;;5083126;28;20067;-59
2021/12/23 12:54:26;;;;;;;89.75;36.47;;;0.40;99.90;;;;;;5094821;28;20048;-59
2021/12/23 12:56:55;;;;;;;89.90;35.33;;;0.40;99.90;;;;;;5092731;28;20429;-58
2021/12/23 12:59:27;;;;;;;97.35;36.95;;;0.50;99.90;;;;;;5096812;28;20050;-58
2021/12/23 13:01:54;;;;;;;87.03;35.33;;;0.50;99.90;;;;;;5109640;28;20032;-59
2021/12/23 13:04:19;;;;;;;88.13;36.38;;;0.60;99.90;;;;;;5104877;28;20158;-59
2021/12/23 13:06:45;;;;;;;89.40;35.47;;;0.50;99.90;;;;;;5094078;28;20130;-59
2021/12/23 13:09:13;;;;;;;101.13;37.97;;;0.60;99.90;;;;;;5103077;28;20369;-58
2021/12/23 13:11:43;;;;;;;87.00;34.67;;;0.60;99.90;;;;;;5099990;28;20085;-60
2021/12/23 13:14:19;;;;;;;98.00;37.92;;;0.60;99.90;;;;;;5102064;28;20380;-58
2021/12/23 13:16:58;;;;;;;91.10;37.03;;;0.50;99.90;;;;;;5104266;28;20047;-60
2021/12/23 13:19:35;;;;;;;94.85;37.00;;;0.60;99.90;;;;;;5097749;28;20478;-59
2021/12/23 13:22:04;;;;;;;87.63;35.58;;;0.60;99.90;;;;;;5091374;28;20039;-58
2021/12/23 13:24:32;;;;;;;83.90;34.85;;;0.60;99.90;;;;;;5098443;28;20062;-58
2021/12/23 13:26:59;;;;;;;90.50;38.10;;;0.60;99.90;;;;;;5102639;28;20032;-58
2021/12/23 13:29:29;;;;;;;97.18;38.03;;;0.60;99.90;;;;;;5103185;28;20051;-59
2021/12/23 13:31:57;;;;;;;87.78;36.50;;;0.60;99.90;;;;;;5104421;28;20036;-59
2021/12/23 13:34:26;;;;;;;95.53;37.33;;;0.60;99.90;;;;;;5099094;28;20036;-59
2021/12/23 13:36:58;;;;;;;91.03;37.35;;;0.70;99.90;;;;;;5104657;28;20035;-58
2021/12/23 13:39:30;;;;;;;84.15;34.90;;;0.70;99.90;;;;;;5093329;28;20551;-60
2021/12/23 13:41:57;;;;;;;92.18;37.53;;;0.70;99.90;;;;;;5069830;28;20043;-61